createdAt,value
2019-04-06T00:01:01.237Z,52.13
2019-04-06T00:03:31.663Z,49.97
2019-04-06T00:06:02.078Z,49.93
2019-04-06T00:08:32.657Z,52.87
2019-04-06T00:11:03.134Z,51.63
2019-04-06T00:13:33.858Z,51.63
2019-04-06T00:16:04.294Z,49.10
2019-04-06T00:18:34.716Z,55.43
2019-04-06T00:21:05.203Z,57.13
2019-04-06T00:23:35.691Z,51.37
2019-04-06T00:26:06.080Z,56.50
2019-04-06T00:28:36.523Z,50.63
2019-04-06T00:31:24.927Z,50.93
2019-04-06T00:33:55.363Z,51.93
2019-04-06T00:36:25.803Z,51.70
2019-04-06T00:38:56.268Z,48.90
2019-04-06T00:41:26.674Z,56.10
2019-04-06T00:43:57.129Z,53.47
2019-04-06T00:46:27.557Z,46.47
2019-04-06T00:48:57.982Z,53.40
2019-04-06T00:51:28.402Z,49.23
2019-04-06T00:53:58.842Z,66.00
2019-04-06T00:56:29.329Z,49.17
2019-04-06T00:59:00.261Z,52.73
2019-04-06T01:01:30.722Z,50.80
2019-04-06T01:04:01.187Z,50.60
2019-04-06T01:06:31.662Z,49.87
2019-04-06T01:09:02.108Z,48.03
2019-04-06T01:11:32.603Z,49.93
2019-04-06T01:14:03.054Z,49.43
2019-04-06T01:16:33.456Z,45.47
2019-04-06T01:19:06.659Z,49.73
2019-04-06T01:21:36.420Z,51.80
2019-04-06T01:24:06.867Z,43.80
2019-04-06T01:26:37.410Z,56.60
2019-04-06T01:29:07.835Z,52.13
2019-04-06T01:31:38.276Z,53.77
2019-04-06T01:34:08.721Z,49.70
2019-04-06T01:36:39.142Z,53.37
2019-04-06T01:39:09.609Z,49.77
2019-04-06T01:41:40.055Z,51.23
2019-04-06T01:44:10.509Z,48.63
2019-04-06T01:46:40.951Z,46.17
2019-04-06T01:49:11.398Z,53.90
2019-04-06T01:51:41.880Z,56.67
2019-04-06T01:54:12.313Z,55.25
2019-04-06T01:56:42.743Z,50.83
2019-04-06T01:59:13.173Z,53.10
2019-04-06T02:02:05.709Z,54.43
2019-04-06T02:04:36.145Z,52.73
2019-04-06T02:07:06.749Z,52.20
2019-04-06T02:09:37.165Z,53.07
2019-04-06T02:12:07.605Z,49.50
2019-04-06T02:14:38.070Z,54.33
2019-04-06T02:17:08.470Z,56.43
2019-04-06T02:19:38.889Z,55.33
2019-04-06T02:22:09.334Z,48.53
2019-04-06T02:24:39.735Z,49.80
2019-04-06T02:27:10.185Z,55.10
2019-04-06T02:29:40.645Z,52.30
2019-04-06T02:32:30.071Z,54.13
2019-04-06T02:35:22.043Z,50.27
2019-04-06T02:38:20.409Z,63.57
2019-04-06T02:41:00.173Z,61.67
2019-04-06T02:43:32.523Z,54.23
2019-04-06T02:46:03.022Z,55.57
2019-04-06T02:48:33.734Z,54.37
2019-04-06T02:51:04.209Z,55.57
2019-04-06T02:53:34.654Z,53.43
2019-04-06T02:56:05.110Z,56.10
2019-04-06T02:58:35.747Z,48.87
2019-04-06T03:01:06.186Z,51.90
2019-04-06T03:03:36.641Z,57.07
2019-04-06T03:06:07.194Z,56.23
2019-04-06T03:08:37.667Z,53.80
2019-04-06T03:11:08.120Z,53.65
2019-04-06T03:13:38.872Z,56.03
2019-04-06T03:16:09.633Z,55.97
2019-04-06T03:18:39.982Z,49.90
2019-04-06T03:21:10.408Z,49.77
2019-04-06T03:23:50.753Z,46.67
2019-04-06T03:26:12.986Z,47.40
2019-04-06T03:28:43.390Z,50.10
2019-04-06T03:31:13.830Z,51.47
2019-04-06T03:33:44.291Z,55.03
2019-04-06T03:36:14.781Z,57.20
2019-04-06T03:38:45.211Z,59.73
2019-04-06T03:41:15.637Z,53.13
2019-04-06T03:43:46.111Z,47.27
2019-04-06T03:46:16.560Z,51.53
2019-04-06T03:48:46.984Z,52.47
2019-04-06T03:51:17.557Z,56.40
2019-04-06T03:53:47.929Z,48.33
2019-04-06T03:56:18.445Z,54.93
2019-04-06T03:58:51.900Z,52.57
2019-04-06T04:01:21.029Z,48.27
2019-04-06T04:03:51.482Z,54.87
2019-04-06T04:06:21.908Z,49.43
2019-04-06T04:08:52.339Z,55.17
2019-04-06T04:11:22.792Z,51.47
2019-04-06T04:13:53.844Z,57.05
2019-04-06T04:16:24.434Z,58.00
2019-04-06T04:18:54.904Z,55.43
2019-04-06T04:21:25.339Z,57.00
2019-04-06T04:23:55.810Z,53.53
2019-04-06T04:26:26.238Z,59.07
2019-04-06T04:28:57.099Z,64.40
2019-04-06T04:31:27.508Z,59.20
2019-04-06T04:33:58.022Z,58.00
2019-04-06T04:36:28.421Z,60.63
2019-04-06T04:38:58.880Z,55.33
2019-04-06T04:41:29.661Z,51.53
2019-04-06T04:44:00.170Z,56.57
2019-04-06T04:46:30.733Z,52.17
2019-04-06T04:49:01.194Z,53.67
2019-04-06T04:51:31.649Z,57.77
2019-04-06T04:54:02.114Z,57.30
2019-04-06T04:56:32.609Z,56.03
2019-04-06T04:59:03.053Z,57.80
2019-04-06T05:01:33.568Z,58.90
2019-04-06T05:04:04.126Z,54.17
2019-04-06T05:06:34.704Z,53.63
2019-04-06T05:09:07.140Z,54.33
2019-04-06T05:11:37.592Z,61.00
2019-04-06T05:15:03.917Z,66.13
2019-04-06T05:17:35.082Z,55.20
2019-04-06T05:20:07.016Z,61.10
2019-04-06T05:22:37.466Z,70.93
2019-04-06T05:25:08.799Z,54.50
2019-04-06T05:27:50.810Z,55.67
2019-04-06T05:30:11.847Z,56.97
2019-04-06T05:32:42.263Z,58.70
2019-04-06T05:35:12.819Z,55.33
2019-04-06T05:37:43.265Z,59.63
2019-04-06T05:40:13.730Z,56.03
2019-04-06T05:42:44.128Z,63.50
2019-04-06T05:45:14.586Z,49.97
2019-04-06T05:47:45.031Z,58.43
2019-04-06T05:50:15.694Z,56.40
2019-04-06T05:52:46.108Z,61.57
2019-04-06T05:55:16.576Z,59.17
2019-04-06T05:57:47.034Z,54.83
2019-04-06T06:00:17.584Z,66.00
2019-04-06T06:03:34.467Z,53.10
2019-04-06T06:07:05.857Z,60.77
2019-04-06T06:09:41.409Z,53.13
2019-04-06T06:12:24.779Z,59.53
2019-04-06T06:14:56.897Z,54.80
2019-04-06T06:17:38.483Z,59.77
2019-04-06T06:20:33.850Z,56.70
2019-04-06T06:23:08.118Z,52.97
2019-04-06T08:23:35.475Z,70.03
2019-04-06T08:26:06.204Z,63.60
2019-04-06T08:28:36.614Z,59.00
2019-04-06T08:31:07.034Z,56.27
2019-04-06T08:33:37.537Z,67.70
2019-04-06T08:36:07.973Z,71.03
2019-04-06T08:38:38.429Z,66.30
2019-04-06T08:41:08.864Z,67.90
2019-04-06T08:43:39.349Z,64.10
2019-04-06T08:46:10.043Z,60.43
2019-04-06T08:48:40.453Z,66.17
2019-04-06T08:51:11.214Z,60.53
2019-04-06T08:53:41.657Z,61.03
2019-04-06T08:56:12.126Z,57.97
2019-04-06T08:58:42.570Z,64.03
2019-04-06T09:01:13.039Z,69.13
2019-04-06T09:03:44.680Z,63.00
2019-04-06T09:06:15.249Z,61.20
2019-04-06T09:08:45.662Z,63.10
2019-04-06T09:11:16.111Z,68.63
2019-04-06T09:13:46.571Z,61.60
2019-04-06T09:16:17.036Z,65.70
2019-04-06T09:18:49.135Z,63.70
2019-04-06T09:21:22.070Z,58.17
2019-04-06T09:23:52.173Z,61.88
2019-04-06T09:26:22.660Z,56.20
2019-04-06T09:28:53.165Z,61.27
2019-04-06T09:31:23.677Z,61.80
2019-04-06T09:33:54.045Z,62.83
2019-04-06T09:36:24.491Z,52.67
2019-04-06T09:38:54.983Z,61.90
2019-04-06T09:41:26.522Z,58.13
2019-04-06T09:43:57.264Z,65.12
2019-04-06T09:46:58.680Z,64.93
2019-04-06T09:49:48.137Z,54.88
2019-04-06T09:52:28.459Z,61.87
2019-04-06T09:55:16.304Z,61.73
2019-04-06T09:58:24.032Z,51.83
2019-04-06T10:01:10.615Z,56.13
2019-04-06T10:03:52.215Z,60.63
2019-04-06T10:06:53.483Z,61.33
2019-04-06T10:09:51.547Z,55.40
2019-04-06T10:12:52.985Z,57.97
2019-04-06T10:15:39.499Z,60.47
2019-04-06T10:18:20.576Z,60.93
2019-04-06T10:21:16.369Z,58.07
2019-04-06T10:24:21.270Z,59.30
2019-04-06T10:27:09.699Z,58.07
2019-04-06T10:30:14.627Z,57.13
2019-04-06T10:33:04.371Z,59.57
2019-04-06T10:35:56.937Z,58.00
2019-04-06T10:38:46.269Z,59.63
2019-04-06T10:41:35.670Z,53.30
2019-04-06T10:44:24.373Z,53.53
2019-04-06T10:47:03.859Z,61.67
2019-04-06T10:49:53.524Z,53.87
2019-04-06T10:52:42.001Z,56.03
2019-04-06T10:55:43.775Z,53.93
2019-04-06T10:58:37.593Z,61.50
2019-04-06T11:01:26.391Z,53.00
2019-04-06T11:04:10.882Z,58.80
2019-04-06T11:07:14.990Z,53.30
2019-04-06T11:09:55.995Z,51.70
2019-04-06T11:12:42.959Z,56.87
2019-04-06T11:15:41.321Z,63.13
2019-04-06T11:18:37.366Z,59.00
2019-04-06T11:21:26.680Z,56.03
2019-04-06T11:24:25.026Z,63.20
2019-04-06T11:27:17.395Z,63.53
2019-04-06T11:30:13.222Z,50.90
2019-04-06T11:32:53.806Z,49.97
2019-04-06T11:35:33.575Z,49.40
2019-04-06T11:38:21.526Z,54.27
2019-04-06T11:41:09.913Z,51.87
2019-04-06T11:44:05.286Z,54.90
2019-04-06T11:47:00.720Z,54.80
2019-04-06T11:49:39.682Z,50.83
2019-04-06T11:52:30.309Z,52.83
2019-04-06T11:55:28.804Z,50.20
2019-04-06T11:58:17.015Z,52.67
2019-04-06T12:01:15.416Z,55.53
2019-04-06T12:04:02.879Z,52.80
2019-04-06T12:06:44.429Z,59.37
2019-04-06T12:09:34.174Z,54.23
2019-04-06T12:12:26.953Z,59.07
2019-04-06T12:15:08.776Z,55.97
2019-04-06T12:17:57.165Z,57.53
2019-04-06T12:20:35.104Z,58.47
2019-04-06T12:23:23.115Z,51.70
2019-04-06T12:26:15.410Z,55.27
2019-04-06T12:28:58.291Z,53.37
2019-04-06T12:31:44.958Z,54.33
2019-04-06T12:34:34.362Z,54.60
2019-04-06T12:37:35.767Z,52.93
2019-04-06T12:40:37.883Z,48.83
2019-04-06T12:43:45.400Z,48.13
2019-04-06T12:46:46.622Z,48.83
2019-04-06T12:49:32.329Z,49.10
2019-04-06T12:52:24.803Z,54.13
2019-04-06T12:55:14.200Z,52.57
2019-04-06T12:58:02.097Z,49.23
2019-04-06T13:00:53.318Z,51.10
2019-04-06T13:03:49.963Z,52.00
2019-04-06T13:06:37.013Z,52.53
2019-04-06T13:09:23.144Z,48.37
2019-04-06T13:12:24.961Z,47.63
2019-04-06T13:15:03.175Z,50.23
2019-04-06T13:17:46.809Z,49.00
2019-04-06T13:20:51.259Z,48.33
2019-04-06T13:23:58.638Z,48.10
2019-04-06T13:26:54.048Z,50.67
2019-04-06T13:29:46.483Z,46.53
2019-04-06T13:32:35.666Z,51.93
2019-04-06T13:35:28.103Z,48.97
2019-04-06T13:38:09.594Z,47.43
2019-04-06T13:41:07.836Z,46.20
2019-04-06T13:43:55.678Z,44.63
2019-04-06T13:46:43.759Z,42.43
2019-04-06T13:49:29.139Z,49.70
2019-04-06T13:52:06.223Z,47.87
2019-04-06T13:54:46.535Z,50.90
2019-04-06T13:57:34.746Z,49.77
2019-04-06T14:00:26.727Z,46.07
2019-04-06T14:03:33.743Z,46.00
2019-04-06T14:06:31.903Z,55.77
2019-04-06T14:09:31.164Z,47.93
2019-04-06T14:12:14.194Z,49.53
2019-04-06T14:15:00.449Z,51.90
2019-04-06T14:17:48.046Z,50.90
2019-04-06T14:20:36.259Z,46.47
2019-04-06T14:23:28.661Z,55.00
2019-04-06T14:26:29.850Z,50.23
2019-04-06T14:29:15.971Z,48.40
2019-04-06T14:32:01.860Z,48.07
2019-04-06T14:35:03.510Z,45.13
2019-04-06T14:37:51.491Z,44.40
2019-04-06T14:40:32.359Z,40.60
2019-04-06T14:43:23.226Z,45.83
2019-04-06T14:46:10.219Z,45.20
2019-04-06T14:48:50.219Z,46.03
2019-04-06T14:51:30.208Z,44.67
2019-04-06T14:54:07.994Z,44.37
2019-04-06T14:56:57.378Z,44.90
2019-04-06T14:59:46.779Z,47.23
2019-04-06T15:02:36.087Z,45.47
2019-04-06T15:05:26.504Z,46.47
2019-04-06T15:08:12.343Z,43.83
2019-04-06T15:11:01.979Z,45.60
2019-04-06T15:13:49.881Z,41.90
2019-04-06T15:16:42.350Z,41.10
2019-04-06T15:19:22.662Z,46.80
2019-04-06T15:22:16.956Z,43.03
2019-04-06T15:25:03.638Z,39.60
2019-04-06T15:27:52.049Z,37.83
2019-04-06T15:30:45.592Z,44.67
2019-04-06T15:33:33.677Z,48.05
2019-04-06T15:36:17.334Z,43.83
2019-04-06T15:39:06.809Z,41.90
2019-04-06T15:41:55.775Z,41.65
2019-04-06T15:44:46.119Z,43.80
2019-04-06T15:47:44.739Z,39.53
2019-04-06T15:50:27.678Z,41.65
2019-04-06T15:53:17.249Z,39.27
2019-04-06T15:56:12.846Z,35.52
2019-04-06T15:59:05.006Z,37.17
2019-04-06T16:01:59.224Z,35.60
2019-04-06T16:04:34.988Z,35.17
2019-04-06T16:07:33.364Z,38.40
2019-04-06T16:10:12.095Z,37.53
2019-04-06T16:13:05.486Z,39.17
2019-04-06T16:16:03.886Z,36.60
2019-04-06T16:19:02.412Z,34.50
2019-04-06T16:21:46.125Z,32.95
2019-04-06T16:24:38.761Z,32.73
2019-04-06T16:27:34.390Z,33.88
2019-04-06T16:30:42.736Z,32.53
2019-04-06T16:33:50.034Z,30.88
2019-04-06T16:36:54.626Z,34.53
2019-04-06T16:39:46.613Z,32.33
2019-04-06T16:42:50.448Z,32.15
2019-04-06T16:45:26.232Z,34.80
2019-04-06T16:48:04.588Z,31.33
2019-04-06T16:50:57.031Z,28.90
2019-04-06T16:53:36.803Z,33.73
2019-04-06T16:56:27.461Z,33.00
2019-04-06T16:59:19.724Z,34.30
2019-04-06T17:02:07.747Z,34.78
2019-04-06T17:05:03.681Z,32.27
2019-04-06T17:07:54.663Z,29.30
2019-04-06T17:10:35.511Z,30.80
2019-04-06T17:13:28.042Z,31.37
2019-04-06T17:16:18.009Z,30.93
2019-04-06T17:18:57.821Z,28.10
2019-04-06T17:21:46.670Z,34.10
2019-04-06T17:24:31.788Z,32.53
2019-04-06T17:27:17.642Z,30.32
2019-04-06T17:30:13.260Z,30.48
2019-04-06T17:33:01.617Z,28.02
2019-04-06T17:35:39.115Z,31.77
2019-04-06T17:38:31.789Z,28.80
2019-04-06T17:41:18.799Z,28.95
2019-04-06T17:44:19.934Z,29.85
2019-04-06T17:47:08.101Z,34.73
2019-04-06T17:50:00.759Z,34.95
2019-04-06T17:52:51.470Z,34.90
2019-04-06T17:55:41.400Z,36.25
2019-04-06T17:58:42.992Z,35.20
2019-04-06T18:01:42.280Z,35.17
2019-04-06T18:04:31.789Z,31.43
2019-04-06T18:07:22.341Z,31.33
2019-04-06T18:10:09.397Z,33.23
2019-04-06T18:12:55.670Z,29.37
2019-04-06T18:15:26.271Z,31.00
2019-04-06T18:17:56.760Z,36.57
2019-04-06T18:20:30.374Z,32.20
2019-04-06T18:23:03.658Z,30.97
2019-04-06T18:25:34.170Z,31.30
2019-04-06T18:28:05.302Z,33.43
2019-04-06T18:30:36.087Z,31.20
2019-04-06T18:33:16.199Z,32.83
2019-04-06T18:35:46.704Z,30.73
2019-04-06T18:38:36.465Z,30.90
2019-04-06T18:41:07.003Z,29.87
2019-04-06T18:43:37.479Z,30.10
2019-04-06T18:46:07.901Z,30.73
2019-04-06T18:48:38.410Z,28.87
2019-04-06T18:51:08.841Z,27.87
2019-04-06T18:53:39.402Z,30.23
2019-04-06T18:56:09.892Z,28.93
2019-04-06T18:58:40.460Z,34.17
2019-04-06T19:01:11.206Z,33.13
2019-04-06T19:03:41.725Z,30.97
2019-04-06T19:06:12.370Z,30.07
2019-04-06T19:08:42.976Z,30.15
2019-04-06T19:11:13.485Z,35.57
2019-04-06T19:13:44.345Z,30.67
2019-04-06T19:16:17.891Z,31.90
2019-04-06T19:18:52.093Z,32.57
2019-04-06T19:21:22.909Z,30.57
2019-04-06T19:23:53.838Z,28.97
2019-04-06T19:26:24.367Z,29.83
2019-04-06T19:28:55.371Z,30.07
2019-04-06T19:31:26.139Z,30.47
2019-04-06T19:33:56.679Z,28.27
2019-04-06T19:36:27.453Z,26.13
2019-04-06T19:38:58.084Z,31.03
2019-04-06T19:41:28.880Z,30.13
2019-04-06T19:43:59.412Z,27.33
2019-04-06T19:46:30.935Z,31.20
2019-04-06T19:49:02.975Z,28.20
2019-04-06T19:51:33.576Z,27.30
2019-04-06T19:54:05.764Z,31.30
2019-04-06T19:56:36.492Z,27.03
2019-04-06T19:59:06.927Z,28.63
2019-04-06T20:01:37.607Z,28.87
2019-04-06T20:04:08.553Z,30.23
2019-04-06T20:06:38.991Z,26.10
2019-04-06T20:09:09.795Z,27.93
2019-04-06T20:11:40.220Z,26.20
2019-04-06T20:14:10.767Z,33.03
2019-04-06T20:16:41.248Z,25.13
2019-04-06T20:19:12.506Z,27.70
2019-04-06T20:21:43.072Z,23.67
2019-04-06T20:24:14.348Z,27.87
2019-04-06T20:26:45.237Z,25.13
2019-04-06T20:29:15.732Z,27.63
2019-04-06T20:31:46.254Z,29.27
2019-04-06T20:34:16.804Z,24.50
2019-04-06T20:36:47.328Z,28.63
2019-04-06T20:39:17.809Z,29.63
2019-04-06T20:41:48.330Z,27.60
2019-04-06T20:44:18.878Z,24.83
2019-04-06T20:46:49.556Z,29.20
2019-04-06T20:49:20.021Z,28.57
2019-04-06T20:51:50.684Z,29.33
2019-04-06T20:54:21.168Z,28.53
2019-04-06T20:56:58.180Z,31.40
2019-04-06T20:59:26.471Z,31.03
2019-04-06T21:01:56.940Z,27.63
2019-04-06T21:04:28.074Z,29.17
2019-04-06T21:06:58.771Z,26.77
2019-04-06T21:09:29.381Z,28.10
2019-04-06T21:12:00.291Z,26.93
2019-04-06T21:14:31.542Z,30.87
2019-04-06T21:17:02.535Z,28.37
2019-04-06T21:19:33.044Z,32.43
2019-04-06T21:22:05.819Z,31.07
2019-04-06T21:24:36.284Z,29.40
2019-04-06T21:27:06.710Z,31.97
2019-04-06T21:29:38.136Z,25.43
2019-04-06T21:32:08.664Z,33.13
2019-04-06T21:34:39.351Z,31.13
2019-04-06T21:37:09.860Z,29.63
2019-04-06T21:39:40.317Z,31.57
2019-04-06T21:42:10.749Z,33.23
2019-04-06T21:44:41.227Z,31.80
2019-04-06T21:47:12.141Z,26.57
2019-04-06T21:49:42.720Z,29.47
2019-04-06T21:52:13.172Z,25.93
2019-04-06T21:54:43.628Z,30.47
2019-04-06T21:57:14.218Z,35.63
2019-04-06T21:59:44.909Z,35.17
2019-04-06T22:02:15.821Z,31.23
2019-04-06T22:04:46.828Z,32.93
2019-04-06T22:07:17.789Z,30.40
2019-04-06T22:09:48.444Z,32.23
2019-04-06T22:12:18.885Z,34.73
2019-04-06T22:14:49.521Z,32.30
2019-04-06T22:17:19.975Z,30.97
2019-04-06T22:19:50.762Z,29.13
2019-04-06T22:22:21.251Z,30.97
2019-04-06T22:24:51.939Z,29.20
2019-04-06T22:27:22.398Z,30.50
2019-04-06T22:29:53.831Z,28.43
2019-04-06T22:32:24.495Z,27.13
2019-04-06T22:34:55.638Z,32.27
2019-04-06T22:37:26.075Z,27.27
2019-04-06T22:39:57.009Z,31.70
2019-04-06T22:42:27.559Z,36.53
2019-04-06T22:44:58.064Z,33.83
2019-04-06T22:47:29.051Z,36.17
2019-04-06T22:50:00.434Z,37.00
2019-04-06T22:52:31.013Z,37.53
2019-04-06T22:55:01.859Z,39.53
2019-04-06T22:57:32.908Z,36.53
2019-04-06T23:00:04.503Z,39.17
2019-04-06T23:02:43.995Z,38.50
2019-04-06T23:05:36.175Z,41.27
2019-04-06T23:08:06.599Z,36.30
2019-04-06T23:10:37.295Z,40.93
2019-04-06T23:13:07.784Z,34.77
2019-04-06T23:15:38.399Z,38.00
2019-04-06T23:18:08.860Z,42.57
2019-04-06T23:20:39.326Z,36.67
2019-04-06T23:23:09.822Z,43.37
2019-04-06T23:25:40.247Z,38.53
2019-04-06T23:28:10.701Z,39.30
2019-04-06T23:30:41.209Z,35.17
2019-04-06T23:33:12.053Z,36.90
2019-04-06T23:35:42.560Z,38.70
2019-04-06T23:38:13.284Z,36.43
2019-04-06T23:40:44.271Z,39.23
2019-04-06T23:43:16.232Z,35.90
2019-04-06T23:45:47.019Z,38.07
2019-04-06T23:48:17.644Z,39.30
2019-04-06T23:50:48.372Z,37.00
2019-04-06T23:53:19.170Z,42.27
2019-04-06T23:55:50.018Z,39.37
2019-04-06T23:58:20.996Z,40.53
